sensor_id;sensor_type;location;lat;lon;timestamp;pressure;altitude;pressure_sealevel;temperature;humidity
69060;BME280;56135;37.534;-122.308;2023-03-14T00:02:26;101500.13;;;17.34;100.00
69060;BME280;56135;37.534;-122.308;2023-03-14T00:04:56;101489.34;;;17.08;100.00
69060;BME280;56135;37.534;-122.308;2023-03-14T00:07:22;101488.38;;;17.10;100.00
69060;BME280;56135;37.534;-122.308;2023-03-14T00:09:50;101491.47;;;16.95;100.00
69060;BME280;56135;37.534;-122.308;2023-03-14T00:12:17;101484.09;;;17.05;100.00
69060;BME280;56135;37.534;-122.308;2023-03-14T00:14:43;101478.72;;;17.06;100.00
69060;BME280;56135;37.534;-122.308;2023-03-14T00:17:09;101470.88;;;17.00;100.00
69060;BME280;56135;37.534;-122.308;2023-03-14T00:19:36;101469.63;;;17.12;100.00
69060;BME280;56135;37.534;-122.308;2023-03-14T00:22:02;101465.97;;;17.16;100.00
69060;BME280;56135;37.534;-122.308;2023-03-14T00:24:28;101461.47;;;17.18;100.00
69060;BME280;56135;37.534;-122.308;2023-03-14T00:26:54;101453.63;;;17.12;100.00
69060;BME280;56135;37.534;-122.308;2023-03-14T00:29:20;101450.03;;;17.13;100.00
69060;BME280;56135;37.534;-122.308;2023-03-14T00:31:47;101450.22;;;17.07;100.00
69060;BME280;56135;37.534;-122.308;2023-03-14T00:34:13;101444.44;;;16.89;100.00
69060;BME280;56135;37.534;-122.308;2023-03-14T00:36:39;101433.13;;;16.81;100.00
69060;BME280;56135;37.534;-122.308;2023-03-14T00:39:05;101430.41;;;16.82;100.00
69060;BME280;56135;37.534;-122.308;2023-03-14T00:41:31;101429.25;;;16.60;100.00
69060;BME280;56135;37.534;-122.308;2023-03-14T00:43:58;101425.31;;;16.73;100.00
69060;BME280;56135;37.534;-122.308;2023-03-14T00:46:24;101424.41;;;16.74;100.00
69060;BME280;56135;37.534;-122.308;2023-03-14T00:48:50;101437.72;;;16.76;100.00
69060;BME280;56135;37.534;-122.308;2023-03-14T00:51:16;101442.94;;;16.79;100.00
69060;BME280;56135;37.534;-122.308;2023-03-14T00:53:42;101443.03;;;16.76;100.00
69060;BME280;56135;37.534;-122.308;2023-03-14T00:56:11;101445.84;;;16.71;100.00
69060;BME280;56135;37.534;-122.308;2023-03-14T00:58:38;101460.41;;;16.59;100.00
69060;BME280;56135;37.534;-122.308;2023-03-14T01:01:10;101462.44;;;16.48;100.00
69060;BME280;56135;37.534;-122.308;2023-03-14T01:03:36;101471.59;;;16.38;100.00
69060;BME280;56135;37.534;-122.308;2023-03-14T01:06:17;101480.56;;;16.35;100.00
69060;BME280;56135;37.534;-122.308;2023-03-14T01:08:45;101480.78;;;16.27;100.00
69060;BME280;56135;37.534;-122.308;2023-03-14T01:13:48;101500.47;;;16.20;100.00
69060;BME280;56135;37.534;-122.308;2023-03-14T01:16:15;101502.22;;;16.21;100.00
69060;BME280;56135;37.534;-122.308;2023-03-14T01:18:44;101498.97;;;16.08;100.00
69060;BME280;56135;37.534;-122.308;2023-03-14T01:21:24;101505.38;;;16.01;100.00
69060;BME280;56135;37.534;-122.308;2023-03-14T01:23:52;101516.22;;;15.93;100.00
69060;BME280;56135;37.534;-122.308;2023-03-14T01:26:21;101512.81;;;15.87;100.00
69060;BME280;56135;37.534;-122.308;2023-03-14T01:28:49;101509.38;;;15.81;100.00
69060;BME280;56135;37.534;-122.308;2023-03-14T01:31:16;101499.75;;;15.74;100.00
69060;BME280;56135;37.534;-122.308;2023-03-14T01:33:44;101484.78;;;15.67;100.00
69060;BME280;56135;37.534;-122.308;2023-03-14T01:36:11;101490.13;;;15.67;100.00
69060;BME280;56135;37.534;-122.308;2023-03-14T01:38:38;101491.19;;;15.58;100.00
69060;BME280;56135;37.534;-122.308;2023-03-14T01:41:07;101488.81;;;15.46;100.00
69060;BME280;56135;37.534;-122.308;2023-03-14T01:43:33;101488.00;;;15.41;100.00
69060;BME280;56135;37.534;-122.308;2023-03-14T01:51:17;101476.91;;;15.20;100.00
69060;BME280;56135;37.534;-122.308;2023-03-14T01:53:45;101472.63;;;15.13;100.00
69060;BME280;56135;37.534;-122.308;2023-03-14T01:56:14;101475.31;;;15.11;100.00
69060;BME280;56135;37.534;-122.308;2023-03-14T01:58:44;101486.25;;;14.97;100.00
69060;BME280;56135;37.534;-122.308;2023-03-14T02:01:11;101479.94;;;15.01;100.00
69060;BME280;56135;37.534;-122.308;2023-03-14T02:03:56;101484.50;;;14.95;100.00
69060;BME280;56135;37.534;-122.308;2023-03-14T02:06:34;101479.38;;;14.86;100.00
69060;BME280;56135;37.534;-122.308;2023-03-14T02:09:02;101483.09;;;14.75;100.00
69060;BME280;56135;37.534;-122.308;2023-03-14T02:11:30;101483.16;;;14.71;100.00
69060;BME280;56135;37.534;-122.308;2023-03-14T02:13:58;101478.91;;;14.60;100.00
69060;BME280;56135;37.534;-122.308;2023-03-14T02:16:26;101471.78;;;14.62;100.00
69060;BME280;56135;37.534;-122.308;2023-03-14T02:18:53;101475.44;;;14.55;100.00
69060;BME280;56135;37.534;-122.308;2023-03-14T02:21:41;101471.13;;;14.48;100.00
69060;BME280;56135;37.534;-122.308;2023-03-14T02:24:17;101477.50;;;14.39;100.00
69060;BME280;56135;37.534;-122.308;2023-03-14T02:27:06;101474.94;;;14.33;100.00
69060;BME280;56135;37.534;-122.308;2023-03-14T02:29:34;101463.50;;;14.28;100.00
69060;BME280;56135;37.534;-122.308;2023-03-14T02:32:02;101472.41;;;14.25;100.00
69060;BME280;56135;37.534;-122.308;2023-03-14T02:34:29;101467.16;;;14.22;100.00
69060;BME280;56135;37.534;-122.308;2023-03-14T02:36:58;101465.44;;;14.18;100.00
69060;BME280;56135;37.534;-122.308;2023-03-14T02:39:44;101461.84;;;14.22;100.00
69060;BME280;56135;37.534;-122.308;2023-03-14T02:42:12;101465.31;;;14.24;100.00
69060;BME280;56135;37.534;-122.308;2023-03-14T02:47:34;101458.44;;;14.12;100.00
69060;BME280;56135;37.534;-122.308;2023-03-14T02:50:10;101467.25;;;14.16;100.00
69060;BME280;56135;37.534;-122.308;2023-03-14T02:52:38;101463.88;;;14.03;100.00
69060;BME280;56135;37.534;-122.308;2023-03-14T02:55:05;101462.84;;;14.13;100.00
69060;BME280;56135;37.534;-122.308;2023-03-14T02:57:34;101469.09;;;14.11;100.00
69060;BME280;56135;37.534;-122.308;2023-03-14T03:00:01;101455.81;;;14.11;100.00
69060;BME280;56135;37.534;-122.308;2023-03-14T03:02:30;101452.22;;;14.13;100.00
69060;BME280;56135;37.534;-122.308;2023-03-14T03:04:56;101453.13;;;14.12;100.00
69060;BME280;56135;37.534;-122.308;2023-03-14T03:07:22;101456.72;;;14.10;100.00
69060;BME280;56135;37.534;-122.308;2023-03-14T03:09:48;101459.50;;;14.02;100.00
69060;BME280;56135;37.534;-122.308;2023-03-14T03:12:15;101452.41;;;14.02;100.00
69060;BME280;56135;37.534;-122.308;2023-03-14T03:14:41;101450.59;;;14.03;100.00
69060;BME280;56135;37.534;-122.308;2023-03-14T03:17:07;101454.19;;;14.02;100.00
69060;BME280;56135;37.534;-122.308;2023-03-14T03:19:34;101462.09;;;14.05;100.00
69060;BME280;56135;37.534;-122.308;2023-03-14T03:22:00;101463.84;;;14.08;100.00
69060;BME280;56135;37.534;-122.308;2023-03-14T03:24:27;101453.25;;;14.06;100.00
69060;BME280;56135;37.534;-122.308;2023-03-14T03:26:53;101455.00;;;14.06;100.00
69060;BME280;56135;37.534;-122.308;2023-03-14T03:29:22;101460.41;;;14.01;100.00
69060;BME280;56135;37.534;-122.308;2023-03-14T03:31:48;101464.03;;;13.95;100.00
69060;BME280;56135;37.534;-122.308;2023-03-14T03:34:15;101468.47;;;13.93;100.00
69060;BME280;56135;37.534;-122.308;2023-03-14T03:36:42;101464.06;;;13.92;100.00
69060;BME280;56135;37.534;-122.308;2023-03-14T03:39:08;101468.44;;;13.98;100.00
69060;BME280;56135;37.534;-122.308;2023-03-14T03:41:34;101471.06;;;13.99;100.00
69060;BME280;56135;37.534;-122.308;2023-03-14T03:44:00;101470.13;;;14.02;100.00
69060;BME280;56135;37.534;-122.308;2023-03-14T03:46:31;101471.09;;;13.96;100.00
69060;BME280;56135;37.534;-122.308;2023-03-14T03:48:59;101478.13;;;13.99;100.00
69060;BME280;56135;37.534;-122.308;2023-03-14T03:51:45;101469.22;;;14.03;100.00
69060;BME280;56135;37.534;-122.308;2023-03-14T03:54:11;101462.06;;;14.07;100.00
69060;BME280;56135;37.534;-122.308;2023-03-14T03:56:37;101464.84;;;13.99;100.00
69060;BME280;56135;37.534;-122.308;2023-03-14T03:59:07;101468.34;;;14.02;100.00
69060;BME280;56135;37.534;-122.308;2023-03-14T04:01:33;101471.88;;;14.01;100.00
69060;BME280;56135;37.534;-122.308;2023-03-14T04:03:59;101473.63;;;14.04;100.00
69060;BME280;56135;37.534;-122.308;2023-03-14T04:06:25;101466.75;;;13.91;100.00
69060;BME280;56135;37.534;-122.308;2023-03-14T04:08:53;101472.00;;;13.94;100.00
69060;BME280;56135;37.534;-122.308;2023-03-14T04:11:22;101463.09;;;13.99;100.00
69060;BME280;56135;37.534;-122.308;2023-03-14T04:13:48;101460.44;;;13.99;100.00
69060;BME280;56135;37.534;-122.308;2023-03-14T04:16:23;101460.72;;;13.81;100.00
69060;BME280;56135;37.534;-122.308;2023-03-14T04:18:50;101463.31;;;13.84;100.00
69060;BME280;56135;37.534;-122.308;2023-03-14T04:21:16;101457.94;;;13.87;100.00
69060;BME280;56135;37.534;-122.308;2023-03-14T04:23:43;101459.81;;;13.82;100.00
69060;BME280;56135;37.534;-122.308;2023-03-14T04:26:09;101465.16;;;13.79;100.00
69060;BME280;56135;37.534;-122.308;2023-03-14T04:28:36;101467.63;;;13.90;100.00
69060;BME280;56135;37.534;-122.308;2023-03-14T04:31:19;101471.28;;;13.84;100.00
69060;BME280;56135;37.534;-122.308;2023-03-14T04:33:46;101466.69;;;13.95;100.00
69060;BME280;56135;37.534;-122.308;2023-03-14T04:36:13;101469.34;;;13.95;100.00
69060;BME280;56135;37.534;-122.308;2023-03-14T04:38:39;101476.34;;;14.01;100.00
69060;BME280;56135;37.534;-122.308;2023-03-14T04:41:06;101474.13;;;13.72;100.00
69060;BME280;56135;37.534;-122.308;2023-03-14T04:43:32;101472.34;;;13.71;100.00
69060;BME280;56135;37.534;-122.308;2023-03-14T04:45:59;101477.63;;;13.72;100.00
69060;BME280;56135;37.534;-122.308;2023-03-14T04:48:26;101462.56;;;13.74;100.00
69060;BME280;56135;37.534;-122.308;2023-03-14T04:50:52;101464.38;;;13.71;100.00
69060;BME280;56135;37.534;-122.308;2023-03-14T04:53:19;101453.84;;;13.64;100.00
69060;BME280;56135;37.534;-122.308;2023-03-14T04:55:49;101451.25;;;13.61;100.00
69060;BME280;56135;37.534;-122.308;2023-03-14T04:58:15;101447.69;;;13.62;100.00
69060;BME280;56135;37.534;-122.308;2023-03-14T05:00:42;101442.41;;;13.61;100.00
69060;BME280;56135;37.534;-122.308;2023-03-14T05:03:08;101438.03;;;13.57;100.00
69060;BME280;56135;37.534;-122.308;2023-03-14T05:05:34;101441.56;;;13.57;100.00
69060;BME280;56135;37.534;-122.308;2023-03-14T05:08:00;101442.53;;;13.53;100.00
69060;BME280;56135;37.534;-122.308;2023-03-14T05:10:26;101431.03;;;13.51;100.00
69060;BME280;56135;37.534;-122.308;2023-03-14T05:12:53;101431.06;;;13.49;100.00
69060;BME280;56135;37.534;-122.308;2023-03-14T05:15:19;101433.81;;;13.42;100.00
69060;BME280;56135;37.534;-122.308;2023-03-14T05:17:45;101433.94;;;13.29;100.00
69060;BME280;56135;37.534;-122.308;2023-03-14T05:20:11;101438.28;;;13.38;100.00
69060;BME280;56135;37.534;-122.308;2023-03-14T05:22:39;101427.59;;;13.44;100.00
69060;BME280;56135;37.534;-122.308;2023-03-14T05:25:06;101423.19;;;13.42;100.00
69060;BME280;56135;37.534;-122.308;2023-03-14T05:27:35;101418.72;;;13.47;100.00
69060;BME280;56135;37.534;-122.308;2023-03-14T05:30:03;101408.97;;;13.49;100.00
69060;BME280;56135;37.534;-122.308;2023-03-14T05:32:29;101403.56;;;13.54;100.00
69060;BME280;56135;37.534;-122.308;2023-03-14T05:35:05;101393.84;;;13.54;100.00
69060;BME280;56135;37.534;-122.308;2023-03-14T05:37:31;101394.78;;;13.51;100.00
69060;BME280;56135;37.534;-122.308;2023-03-14T05:39:57;101404.47;;;13.54;100.00
69060;BME280;56135;37.534;-122.308;2023-03-14T05:42:27;101390.47;;;13.43;100.00
69060;BME280;56135;37.534;-122.308;2023-03-14T05:44:53;101387.72;;;13.47;100.00
69060;BME280;56135;37.534;-122.308;2023-03-14T05:47:20;101386.94;;;13.41;100.00
69060;BME280;56135;37.534;-122.308;2023-03-14T05:49:46;101388.06;;;13.21;100.00
69060;BME280;56135;37.534;-122.308;2023-03-14T05:52:12;101376.69;;;13.14;100.00
69060;BME280;56135;37.534;-122.308;2023-03-14T05:54:44;101378.34;;;13.20;100.00
69060;BME280;56135;37.534;-122.308;2023-03-14T05:57:11;101374.78;;;13.23;100.00
69060;BME280;56135;37.534;-122.308;2023-03-14T05:59:37;101372.09;;;13.26;100.00
69060;BME280;56135;37.534;-122.308;2023-03-14T06:02:03;101365.03;;;13.26;100.00
69060;BME280;56135;37.534;-122.308;2023-03-14T06:04:29;101366.75;;;13.27;100.00
69060;BME280;56135;37.534;-122.308;2023-03-14T06:06:55;101364.94;;;13.31;100.00
69060;BME280;56135;37.534;-122.308;2023-03-14T06:09:22;101362.28;;;13.31;100.00
69060;BME280;56135;37.534;-122.308;2023-03-14T06:11:49;101357.94;;;13.25;100.00
69060;BME280;56135;37.534;-122.308;2023-03-14T06:14:21;101353.53;;;13.24;100.00
69060;BME280;56135;37.534;-122.308;2023-03-14T06:16:48;101340.28;;;13.23;100.00
69060;BME280;56135;37.534;-122.308;2023-03-14T06:19:14;101337.66;;;13.23;100.00
69060;BME280;56135;37.534;-122.308;2023-03-14T06:21:41;101335.03;;;13.18;100.00
69060;BME280;56135;37.534;-122.308;2023-03-14T06:24:07;101333.31;;;13.17;100.00
69060;BME280;56135;37.534;-122.308;2023-03-14T06:26:33;101328.91;;;13.16;100.00
69060;BME280;56135;37.534;-122.308;2023-03-14T06:28:59;101324.47;;;13.15;100.00
69060;BME280;56135;37.534;-122.308;2023-03-14T06:31:30;101323.75;;;13.04;100.00
69060;BME280;56135;37.534;-122.308;2023-03-14T06:33:56;101319.38;;;13.01;100.00
69060;BME280;56135;37.534;-122.308;2023-03-14T06:36:23;101322.81;;;13.06;100.00
69060;BME280;56135;37.534;-122.308;2023-03-14T06:38:49;101325.44;;;13.11;100.00
69060;BME280;56135;37.534;-122.308;2023-03-14T06:41:15;101326.28;;;13.11;100.00
69060;BME280;56135;37.534;-122.308;2023-03-14T06:43:41;101323.66;;;13.10;100.00
69060;BME280;56135;37.534;-122.308;2023-03-14T06:46:07;101320.19;;;13.08;100.00
69060;BME280;56135;37.534;-122.308;2023-03-14T06:48:34;101322.03;;;13.01;100.00
69060;BME280;56135;37.534;-122.308;2023-03-14T06:51:00;101317.53;;;13.06;100.00
69060;BME280;56135;37.534;-122.308;2023-03-14T06:53:26;101319.41;;;12.98;100.00
69060;BME280;56135;37.534;-122.308;2023-03-14T06:55:53;101299.88;;;13.04;100.00
69060;BME280;56135;37.534;-122.308;2023-03-14T06:58:19;101302.50;;;13.07;100.00
69060;BME280;56135;37.534;-122.308;2023-03-14T07:00:46;101295.38;;;13.09;100.00
69060;BME280;56135;37.534;-122.308;2023-03-14T07:03:13;101297.19;;;13.07;100.00
69060;BME280;56135;37.534;-122.308;2023-03-14T07:05:40;101301.63;;;13.08;100.00
69060;BME280;56135;37.534;-122.308;2023-03-14T07:08:07;101293.72;;;13.03;100.00
69060;BME280;56135;37.534;-122.308;2023-03-14T07:10:34;101293.78;;;12.98;100.00
69060;BME280;56135;37.534;-122.308;2023-03-14T07:13:00;101284.88;;;13.02;100.00
69060;BME280;56135;37.534;-122.308;2023-03-14T07:15:26;101280.47;;;13.01;100.00
69060;BME280;56135;37.534;-122.308;2023-03-14T07:17:53;101276.97;;;13.01;100.00
69060;BME280;56135;37.534;-122.308;2023-03-14T07:20:19;101275.16;;;13.01;100.00
69060;BME280;56135;37.534;-122.308;2023-03-14T07:22:47;101263.69;;;12.99;100.00
69060;BME280;56135;37.534;-122.308;2023-03-14T07:25:15;101254.78;;;13.04;100.00
69060;BME280;56135;37.534;-122.308;2023-03-14T07:27:46;101255.72;;;13.02;100.00
69060;BME280;56135;37.534;-122.308;2023-03-14T07:30:14;101248.69;;;13.00;100.00
69060;BME280;56135;37.534;-122.308;2023-03-14T07:32:40;101254.75;;;13.07;100.00
69060;BME280;56135;37.534;-122.308;2023-03-14T07:35:07;101254.78;;;13.04;100.00
69060;BME280;56135;37.534;-122.308;2023-03-14T07:37:33;101260.09;;;13.05;100.00
69060;BME280;56135;37.534;-122.308;2023-03-14T07:39:59;101251.25;;;13.05;100.00
69060;BME280;56135;37.534;-122.308;2023-03-14T07:42:26;101249.44;;;13.08;100.00
69060;BME280;56135;37.534;-122.308;2023-03-14T07:44:52;101240.59;;;13.06;100.00
69060;BME280;56135;37.534;-122.308;2023-03-14T07:47:18;101244.19;;;13.04;100.00
69060;BME280;56135;37.534;-122.308;2023-03-14T07:49:44;101245.09;;;13.02;100.00
69060;BME280;56135;37.534;-122.308;2023-03-14T07:52:10;101227.34;;;13.06;100.00
69060;BME280;56135;37.534;-122.308;2023-03-14T07:54:37;101222.03;;;13.06;100.00
69060;BME280;56135;37.534;-122.308;2023-03-14T07:57:03;101214.09;;;13.05;100.00
69060;BME280;56135;37.534;-122.308;2023-03-14T07:59:29;101214.94;;;13.08;100.00
69060;BME280;56135;37.534;-122.308;2023-03-14T08:01:55;101212.19;;;13.13;100.00
69060;BME280;56135;37.534;-122.308;2023-03-14T08:04:22;101196.34;;;13.10;100.00
69060;BME280;56135;37.534;-122.308;2023-03-14T08:06:48;101193.66;;;13.11;100.00
69060;BME280;56135;37.534;-122.308;2023-03-14T08:09:14;101185.69;;;13.13;100.00
69060;BME280;56135;37.534;-122.308;2023-03-14T08:11:40;101190.06;;;13.17;100.00
69060;BME280;56135;37.534;-122.308;2023-03-14T08:14:06;101181.25;;;13.15;100.00
69060;BME280;56135;37.534;-122.308;2023-03-14T08:16:33;101181.22;;;13.16;100.00
69060;BME280;56135;37.534;-122.308;2023-03-14T08:18:59;101180.31;;;13.17;100.00
69060;BME280;56135;37.534;-122.308;2023-03-14T08:21:25;101183.88;;;13.15;100.00
69060;BME280;56135;37.534;-122.308;2023-03-14T08:23:51;101169.69;;;13.17;100.00
69060;BME280;56135;37.534;-122.308;2023-03-14T08:26:18;101160.91;;;13.14;100.00
69060;BME280;56135;37.534;-122.308;2023-03-14T08:28:44;101160.00;;;13.15;100.00
69060;BME280;56135;37.534;-122.308;2023-03-14T08:31:10;101159.13;;;13.16;100.00
69060;BME280;56135;37.534;-122.308;2023-03-14T08:33:36;101155.50;;;13.20;100.00
69060;BME280;56135;37.534;-122.308;2023-03-14T08:36:02;101156.44;;;13.17;100.00
69060;BME280;56135;37.534;-122.308;2023-03-14T08:38:29;101137.84;;;13.19;100.00
69060;BME280;56135;37.534;-122.308;2023-03-14T08:40:59;101136.97;;;13.18;100.00
69060;BME280;56135;37.534;-122.308;2023-03-14T08:43:27;101140.53;;;13.17;100.00
69060;BME280;56135;37.534;-122.308;2023-03-14T08:45:57;101134.34;;;13.17;100.00
69060;BME280;56135;37.534;-122.308;2023-03-14T08:48:23;101139.69;;;13.14;100.00
69060;BME280;56135;37.534;-122.308;2023-03-14T08:50:49;101129.16;;;13.11;100.00
69060;BME280;56135;37.534;-122.308;2023-03-14T08:53:15;101133.59;;;13.10;100.00
69060;BME280;56135;37.534;-122.308;2023-03-14T08:55:42;101125.63;;;13.10;100.00
69060;BME280;56135;37.534;-122.308;2023-03-14T08:58:08;101121.22;;;13.09;100.00
69060;BME280;56135;37.534;-122.308;2023-03-14T09:00:34;101120.38;;;13.06;100.00
69060;BME280;56135;37.534;-122.308;2023-03-14T09:03:00;101119.50;;;13.07;100.00
69060;BME280;56135;37.534;-122.308;2023-03-14T09:05:27;101120.34;;;13.07;100.00
69060;BME280;56135;37.534;-122.308;2023-03-14T09:07:53;101117.72;;;13.06;100.00
69060;BME280;56135;37.534;-122.308;2023-03-14T09:10:19;101113.28;;;13.06;100.00
69060;BME280;56135;37.534;-122.308;2023-03-14T09:12:45;101105.34;;;13.08;100.00
69060;BME280;56135;37.534;-122.308;2023-03-14T09:15:11;101098.31;;;13.05;100.00
69060;BME280;56135;37.534;-122.308;2023-03-14T09:17:38;101098.19;;;13.11;100.00
69060;BME280;56135;37.534;-122.308;2023-03-14T09:20:04;101093.81;;;13.09;100.00
69060;BME280;56135;37.534;-122.308;2023-03-14T09:22:32;101092.94;;;13.08;100.00
69060;BME280;56135;37.534;-122.308;2023-03-14T09:25:01;101090.25;;;13.10;100.00
69060;BME280;56135;37.534;-122.308;2023-03-14T09:27:27;101085.88;;;13.07;100.00
69060;BME280;56135;37.534;-122.308;2023-03-14T09:29:53;101085.88;;;13.07;100.00
69060;BME280;56135;37.534;-122.308;2023-03-14T09:32:20;101074.38;;;13.08;100.00
69060;BME280;56135;37.534;-122.308;2023-03-14T09:34:46;101073.47;;;13.09;100.00
69060;BME280;56135;37.534;-122.308;2023-03-14T09:37:12;101069.13;;;13.05;100.00
69060;BME280;56135;37.534;-122.308;2023-03-14T09:39:38;101063.06;;;12.98;100.00
69060;BME280;56135;37.534;-122.308;2023-03-14T09:42:06;101062.09;;;13.02;100.00
69060;BME280;56135;37.534;-122.308;2023-03-14T09:44:40;101058.56;;;13.02;100.00
69060;BME280;56135;37.534;-122.308;2023-03-14T09:47:12;101059.41;;;13.04;100.00
69060;BME280;56135;37.534;-122.308;2023-03-14T09:49:42;101054.16;;;13.02;100.00
69060;BME280;56135;37.534;-122.308;2023-03-14T09:52:32;101042.56;;;13.07;100.00
69060;BME280;56135;37.534;-122.308;2023-03-14T09:55:05;101034.56;;;13.10;100.00
69060;BME280;56135;37.534;-122.308;2023-03-14T09:57:36;101032.84;;;13.07;100.00
69060;BME280;56135;37.534;-122.308;2023-03-14T10:00:23;101028.50;;;13.03;100.00
69060;BME280;56135;37.534;-122.308;2023-03-14T10:03:09;101019.78;;;12.96;100.00
69060;BME280;56135;37.534;-122.308;2023-03-14T10:05:41;101012.75;;;12.94;100.00
69060;BME280;56135;37.534;-122.308;2023-03-14T10:08:11;101006.50;;;12.96;100.00
69060;BME280;56135;37.534;-122.308;2023-03-14T10:10:38;101000.19;;;13.04;100.00
69060;BME280;56135;37.534;-122.308;2023-03-14T10:13:16;100992.41;;;12.96;100.00
69060;BME280;56135;37.534;-122.308;2023-03-14T10:16:03;100980.09;;;12.92;100.00
69060;BME280;56135;37.534;-122.308;2023-03-14T10:18:32;100985.31;;;12.96;100.00
69060;BME280;56135;37.534;-122.308;2023-03-14T10:23:45;100984.34;;;13.00;100.00
69060;BME280;56135;37.534;-122.308;2023-03-14T10:26:17;100979.94;;;12.99;100.00
69060;BME280;56135;37.534;-122.308;2023-03-14T10:28:47;100979.09;;;12.97;100.00
69060;BME280;56135;37.534;-122.308;2023-03-14T10:31:15;100977.63;;;12.82;100.00
69060;BME280;56135;37.534;-122.308;2023-03-14T10:33:41;100963.47;;;12.82;100.00
69060;BME280;56135;37.534;-122.308;2023-03-14T10:36:29;100962.69;;;12.77;100.00
69060;BME280;56135;37.534;-122.308;2023-03-14T10:39:26;100959.06;;;12.81;100.00
69060;BME280;56135;37.534;-122.308;2023-03-14T10:41:56;100948.56;;;12.76;100.00
69060;BME280;56135;37.534;-122.308;2023-03-14T10:44:28;100936.28;;;12.72;100.00
69060;BME280;56135;37.534;-122.308;2023-03-14T10:47:01;100934.41;;;12.77;100.00
69060;BME280;56135;37.534;-122.308;2023-03-14T10:49:33;100925.53;;;12.78;100.00
69060;BME280;56135;37.534;-122.308;2023-03-14T10:54:41;100896.53;;;12.69;100.00
69060;BME280;56135;37.534;-122.308;2023-03-14T10:57:12;100894.03;;;12.63;100.00
69060;BME280;56135;37.534;-122.308;2023-03-14T10:59:39;100882.66;;;12.58;100.00
69060;BME280;56135;37.534;-122.308;2023-03-14T11:02:28;100879.09;;;12.57;100.00
69060;BME280;56135;37.534;-122.308;2023-03-14T11:07:45;100868.56;;;12.54;100.00
69060;BME280;56135;37.534;-122.308;2023-03-14T11:12:57;100865.25;;;12.43;100.00
69060;BME280;56135;37.534;-122.308;2023-03-14T11:15:35;100841.66;;;12.29;100.00
69060;BME280;56135;37.534;-122.308;2023-03-14T11:21:15;100834.91;;;12.12;100.00
69060;BME280;56135;37.534;-122.308;2023-03-14T11:33:16;100816.09;;;12.26;100.00
69060;BME280;56135;37.534;-122.308;2023-03-14T11:35:45;100807.53;;;12.12;100.00
69060;BME280;56135;37.534;-122.308;2023-03-14T11:38:29;100802.25;;;12.12;100.00
69060;BME280;56135;37.534;-122.308;2023-03-14T11:40:58;100796.13;;;12.10;100.00
69060;BME280;56135;37.534;-122.308;2023-03-14T11:43:35;100789.84;;;12.14;100.00
69060;BME280;56135;37.534;-122.308;2023-03-14T11:46:24;100791.47;;;12.21;100.00
69060;BME280;56135;37.534;-122.308;2023-03-14T11:49:11;100781.84;;;12.17;100.00
69060;BME280;56135;37.534;-122.308;2023-03-14T11:51:46;100771.25;;;12.17;100.00
69060;BME280;56135;37.534;-122.308;2023-03-14T11:54:55;100774.03;;;12.09;100.00
69060;BME280;56135;37.534;-122.308;2023-03-14T11:57:22;100773.94;;;12.15;100.00
69060;BME280;56135;37.534;-122.308;2023-03-14T11:59:52;100767.78;;;12.15;100.00
69060;BME280;56135;37.534;-122.308;2023-03-14T12:10:27;100749.16;;;12.18;100.00
69060;BME280;56135;37.534;-122.308;2023-03-14T12:12:54;100749.13;;;12.20;100.00
69060;BME280;56135;37.534;-122.308;2023-03-14T12:15:22;100737.69;;;12.19;100.00
69060;BME280;56135;37.534;-122.308;2023-03-14T12:17:56;100723.69;;;12.12;100.00
69060;BME280;56135;37.534;-122.308;2023-03-14T12:20:24;100713.03;;;12.15;100.00
69060;BME280;56135;37.534;-122.308;2023-03-14T12:23:10;100711.34;;;12.11;100.00
69060;BME280;56135;37.534;-122.308;2023-03-14T12:25:37;100697.13;;;12.15;100.00
69060;BME280;56135;37.534;-122.308;2023-03-14T12:28:20;100682.16;;;12.14;100.00
69060;BME280;56135;37.534;-122.308;2023-03-14T12:30:46;100675.09;;;12.15;100.00
69060;BME280;56135;37.534;-122.308;2023-03-14T12:33:21;100664.41;;;12.18;100.00
69060;BME280;56135;37.534;-122.308;2023-03-14T12:36:01;100644.06;;;12.20;100.00
69060;BME280;56135;37.534;-122.308;2023-03-14T12:38:39;100638.84;;;12.17;100.00
69060;BME280;56135;37.534;-122.308;2023-03-14T12:43:41;100621.19;;;12.17;100.00
69060;BME280;56135;37.534;-122.308;2023-03-14T12:48:39;100606.19;;;12.16;100.00
69060;BME280;56135;37.534;-122.308;2023-03-14T12:51:17;100607.03;;;12.18;100.00
69060;BME280;56135;37.534;-122.308;2023-03-14T12:56:26;100591.13;;;12.18;100.00
69060;BME280;56135;37.534;-122.308;2023-03-14T13:04:29;100581.56;;;12.13;100.00
69060;BME280;56135;37.534;-122.308;2023-03-14T13:07:00;100573.69;;;12.10;100.00
69060;BME280;56135;37.534;-122.308;2023-03-14T13:12:10;100561.31;;;12.10;100.00
69060;BME280;56135;37.534;-122.308;2023-03-14T13:14:41;100556.94;;;12.08;100.00
69060;BME280;56135;37.534;-122.308;2023-03-14T13:17:14;100547.25;;;12.07;100.00
69060;BME280;56135;37.534;-122.308;2023-03-14T13:19:42;100555.16;;;12.10;100.00